Time;durP1;ratioP1;P1;durP2;ratioP2;P2;SDS_P1;SDS_P2;PMS_P1;PMS_P2;Temp;Humidity;BMP_temperature;BMP_pressure;BME280_temperature;BME280_humidity;BME280_pressure;Samples;Min_cycle;Max_cycle;Signal;HPM_P1;HPM_P2
2022/03/01 00:01:57;;;;;;;9.43;4.38;;;;;;;;;;6011237;23;20023;-57
2022/03/01 00:04:22;;;;;;;14.82;4.03;;;;;;;;;;6009664;23;20020;-57
2022/03/01 00:06:48;;;;;;;6.72;4.10;;;;;;;;;;6013145;23;20479;-54
2022/03/01 00:09:13;;;;;;;6.10;3.45;;;;;;;;;;6012807;23;20034;-55
2022/03/01 00:11:38;;;;;;;5.43;3.70;;;;;;;;;;6011414;23;20026;-57
2022/03/01 00:14:04;;;;;;;6.28;3.53;;;;;;;;;;6014540;23;20022;-56
2022/03/01 00:16:29;;;;;;;7.72;3.13;;;;;;;;;;6011518;23;20512;-57
2022/03/01 00:18:55;;;;;;;7.30;3.85;;;;;;;;;;6013320;23;20734;-57
2022/03/01 00:21:21;;;;;;;6.28;3.47;;;;;;;;;;6010280;23;20024;-56
2022/03/01 00:23:47;;;;;;;8.02;4.45;;;;;;;;;;6013108;23;20031;-57
2022/03/01 00:26:12;;;;;;;7.28;3.13;;;;;;;;;;6011086;23;20016;-57
2022/03/01 00:28:37;;;;;;;6.18;4.15;;;;;;;;;;6013610;23;20014;-56
2022/03/01 00:31:03;;;;;;;8.20;3.97;;;;;;;;;;6011474;23;20031;-58
2022/03/01 00:33:29;;;;;;;7.93;5.68;;;;;;;;;;6012218;23;20026;-56
2022/03/01 00:35:54;;;;;;;10.25;4.57;;;;;;;;;;5987478;23;20022;-57
2022/03/01 00:38:19;;;;;;;8.48;4.25;;;;;;;;;;6010774;23;20022;-57
2022/03/01 00:40:44;;;;;;;7.70;4.32;;;;;;;;;;6013205;23;20023;-58
2022/03/01 00:43:10;;;;;;;6.55;3.97;;;;;;;;;;6011874;23;20011;-54
2022/03/01 00:45:35;;;;;;;5.55;3.92;;;;;;;;;;6015037;23;20019;-55
2022/03/01 00:48:00;;;;;;;9.20;4.10;;;;;;;;;;6012440;23;20022;-58
2022/03/01 00:50:26;;;;;;;7.35;5.25;;;;;;;;;;6014723;23;20519;-57
2022/03/01 00:52:51;;;;;;;10.05;5.35;;;;;;;;;;6013934;23;20008;-56
2022/03/01 00:55:16;;;;;;;13.20;5.85;;;;;;;;;;6014341;23;20015;-58
2022/03/01 00:57:42;;;;;;;8.63;5.32;;;;;;;;;;6012457;23;20007;-59
2022/03/01 01:00:07;;;;;;;10.30;5.85;;;;;;;;;;5990592;23;20039;-56
2022/03/01 01:02:33;;;;;;;10.32;6.13;;;;;;;;;;6012381;23;20040;-55
2022/03/01 01:04:58;;;;;;;11.27;7.18;;;;;;;;;;6014866;23;20015;-56
2022/03/01 01:07:25;;;;;;;15.73;8.25;;;;;;;;;;6010858;23;20012;-58
2022/03/01 01:09:50;;;;;;;14.80;7.75;;;;;;;;;;6014839;23;20027;-55
2022/03/01 01:12:16;;;;;;;16.92;7.55;;;;;;;;;;6012468;23;20345;-57
2022/03/01 01:14:41;;;;;;;14.15;7.45;;;;;;;;;;6015090;23;20023;-57
2022/03/01 01:17:06;;;;;;;17.60;9.35;;;;;;;;;;6012393;23;20004;-57
2022/03/01 01:19:32;;;;;;;18.85;10.05;;;;;;;;;;6014431;23;20018;-58
2022/03/01 01:24:41;;;;;;;16.05;9.40;;;;;;;;;;6011157;23;20031;-58
2022/03/01 01:27:07;;;;;;;24.25;10.10;;;;;;;;;;6015550;23;20016;-58
2022/03/01 01:29:32;;;;;;;18.88;10.57;;;;;;;;;;6011454;23;20020;-56
2022/03/01 01:31:57;;;;;;;17.75;9.40;;;;;;;;;;6016416;23;20016;-58
2022/03/01 01:34:22;;;;;;;17.23;9.88;;;;;;;;;;6012541;23;20063;-57
2022/03/01 01:36:48;;;;;;;18.00;9.93;;;;;;;;;;6016126;23;20020;-57
2022/03/01 01:39:13;;;;;;;19.20;9.73;;;;;;;;;;6012242;23;20040;-58
2022/03/01 01:41:38;;;;;;;20.42;10.30;;;;;;;;;;6014469;23;20028;-58
2022/03/01 01:44:04;;;;;;;19.52;9.27;;;;;;;;;;6013265;23;20016;-56
2022/03/01 01:46:30;;;;;;;18.73;9.32;;;;;;;;;;6015721;23;20035;-56
2022/03/01 01:48:55;;;;;;;22.48;9.50;;;;;;;;;;6012956;23;20726;-54
2022/03/01 01:51:20;;;;;;;13.85;7.40;;;;;;;;;;6014836;23;20071;-56
2022/03/01 01:53:46;;;;;;;12.13;7.72;;;;;;;;;;6013000;23;20704;-57
2022/03/01 01:56:11;;;;;;;12.98;7.78;;;;;;;;;;6014399;23;20007;-57
2022/03/01 01:58:36;;;;;;;16.05;8.80;;;;;;;;;;6015215;23;20007;-55
2022/03/01 02:01:02;;;;;;;19.92;9.07;;;;;;;;;;6013783;23;20063;-56
2022/03/01 02:03:27;;;;;;;16.27;8.05;;;;;;;;;;6014647;23;20015;-56
2022/03/01 02:05:52;;;;;;;15.50;8.02;;;;;;;;;;6009926;23;20079;-55
2022/03/01 02:08:18;;;;;;;17.67;8.32;;;;;;;;;;6013958;23;20712;-56
2022/03/01 02:10:43;;;;;;;22.80;9.48;;;;;;;;;;6012352;23;20039;-56
2022/03/01 02:13:08;;;;;;;18.75;8.13;;;;;;;;;;6015042;23;20072;-57
2022/03/01 02:15:35;;;;;;;16.85;10.00;;;;;;;;;;6012610;23;20016;-58
2022/03/01 02:18:02;;;;;;;20.02;8.35;;;;;;;;;;6014691;23;20012;-57
2022/03/01 02:20:29;;;;;;;21.73;8.80;;;;;;;;;;6013525;23;20349;-57
2022/03/01 02:22:55;;;;;;;14.25;7.70;;;;;;;;;;6014875;23;20018;-58
2022/03/01 02:25:20;;;;;;;13.77;8.13;;;;;;;;;;6012378;23;20020;-57
2022/03/01 02:27:46;;;;;;;16.38;8.70;;;;;;;;;;5989404;23;20023;-57
2022/03/01 02:30:11;;;;;;;17.92;7.82;;;;;;;;;;6012660;23;20043;-58
2022/03/01 02:32:37;;;;;;;17.20;7.60;;;;;;;;;;5989112;23;20007;-57
2022/03/01 02:35:03;;;;;;;14.55;7.57;;;;;;;;;;6012930;23;20016;-58
2022/03/01 02:37:29;;;;;;;17.75;8.85;;;;;;;;;;6014095;23;20043;-58
2022/03/01 02:39:54;;;;;;;14.40;7.47;;;;;;;;;;6014630;23;20043;-57
2022/03/01 02:42:20;;;;;;;17.15;8.80;;;;;;;;;;6015657;23;20011;-58
2022/03/01 02:44:46;;;;;;;13.38;8.13;;;;;;;;;;6014022;23;20071;-57
2022/03/01 02:47:11;;;;;;;15.55;8.40;;;;;;;;;;6011878;23;20201;-54
2022/03/01 02:49:36;;;;;;;14.50;7.78;;;;;;;;;;6016187;23;20072;-56
2022/03/01 02:52:01;;;;;;;20.42;9.90;;;;;;;;;;6011081;23;20016;-56
2022/03/01 02:54:26;;;;;;;14.05;7.97;;;;;;;;;;6015000;23;20036;-57
2022/03/01 02:56:52;;;;;;;22.17;9.27;;;;;;;;;;6016333;23;20047;-56
2022/03/01 02:59:17;;;;;;;17.40;9.45;;;;;;;;;;6015556;23;20506;-57
2022/03/01 03:01:42;;;;;;;18.27;9.10;;;;;;;;;;6016878;23;20055;-57
2022/03/01 03:04:08;;;;;;;16.13;9.95;;;;;;;;;;6014264;23;20016;-57
2022/03/01 03:06:33;;;;;;;20.65;9.90;;;;;;;;;;6016598;23;20068;-56
2022/03/01 03:08:59;;;;;;;21.52;10.15;;;;;;;;;;6015369;23;20024;-57
2022/03/01 03:11:24;;;;;;;24.65;10.73;;;;;;;;;;6013964;23;20024;-59
2022/03/01 03:13:49;;;;;;;17.65;10.23;;;;;;;;;;6016235;23;20008;-58
2022/03/01 03:16:16;;;;;;;16.83;9.70;;;;;;;;;;6015026;23;20024;-57
2022/03/01 03:18:42;;;;;;;21.20;9.63;;;;;;;;;;6016368;23;20027;-57
2022/03/01 03:21:07;;;;;;;17.42;8.52;;;;;;;;;;6015386;23;20044;-58
2022/03/01 03:23:33;;;;;;;17.42;8.45;;;;;;;;;;6014269;23;20032;-57
2022/03/01 03:25:58;;;;;;;20.55;8.48;;;;;;;;;;6015977;23;20024;-56
2022/03/01 03:28:23;;;;;;;17.10;9.43;;;;;;;;;;6014082;23;20016;-56
2022/03/01 03:30:48;;;;;;;15.50;8.80;;;;;;;;;;5991588;23;20020;-58
2022/03/01 03:33:14;;;;;;;23.65;9.05;;;;;;;;;;6013019;23;20469;-57
2022/03/01 03:35:39;;;;;;;19.92;9.10;;;;;;;;;;6016911;23;20044;-57
2022/03/01 03:38:04;;;;;;;17.20;9.25;;;;;;;;;;6014986;23;20067;-58
2022/03/01 03:40:30;;;;;;;25.95;12.25;;;;;;;;;;6016331;23;20012;-54
2022/03/01 03:42:55;;;;;;;18.02;11.15;;;;;;;;;;6014031;23;20027;-54
2022/03/01 03:45:20;;;;;;;16.15;9.52;;;;;;;;;;6015749;23;20338;-58
2022/03/01 03:47:46;;;;;;;21.48;9.98;;;;;;;;;;6013630;23;20016;-58
2022/03/01 03:50:11;;;;;;;17.83;9.85;;;;;;;;;;6012890;23;20184;-58
2022/03/01 03:52:38;;;;;;;21.38;10.07;;;;;;;;;;6013244;23;20091;-58
2022/03/01 03:55:05;;;;;;;15.90;9.38;;;;;;;;;;6016058;23;20011;-55
2022/03/01 03:57:30;;;;;;;16.00;9.38;;;;;;;;;;6013195;23;20426;-57
2022/03/01 03:59:55;;;;;;;18.85;8.68;;;;;;;;;;6015839;23;20031;-56
2022/03/01 04:02:20;;;;;;;19.63;9.98;;;;;;;;;;6013063;23;20050;-58
2022/03/01 04:04:46;;;;;;;25.38;10.57;;;;;;;;;;6015581;23;20015;-57
2022/03/01 04:07:11;;;;;;;20.50;9.88;;;;;;;;;;6012968;23;20016;-55
2022/03/01 04:09:36;;;;;;;20.02;10.02;;;;;;;;;;6016372;23;20030;-57
2022/03/01 04:12:02;;;;;;;18.10;8.73;;;;;;;;;;6013979;23;20064;-58
2022/03/01 04:14:27;;;;;;;22.10;8.98;;;;;;;;;;6015293;23;20039;-57
2022/03/01 04:16:52;;;;;;;18.92;8.55;;;;;;;;;;6013761;23;20012;-54
2022/03/01 04:19:18;;;;;;;21.33;9.40;;;;;;;;;;6009449;23;20031;-58
2022/03/01 04:21:44;;;;;;;17.38;8.88;;;;;;;;;;6015396;23;20024;-58
2022/03/01 04:24:09;;;;;;;14.98;8.23;;;;;;;;;;6014303;23;20040;-50
2022/03/01 04:26:34;;;;;;;20.95;9.73;;;;;;;;;;6015597;23;20015;-57
2022/03/01 04:29:00;;;;;;;18.08;9.70;;;;;;;;;;6016441;23;20019;-56
2022/03/01 04:31:25;;;;;;;25.55;11.38;;;;;;;;;;6012906;23;20030;-58
2022/03/01 04:33:50;;;;;;;24.05;8.80;;;;;;;;;;6015917;23;20014;-57
2022/03/01 04:36:16;;;;;;;22.25;9.73;;;;;;;;;;6014589;23;20100;-57
2022/03/01 04:38:41;;;;;;;21.13;8.55;;;;;;;;;;6014252;23;20027;-56
2022/03/01 04:41:07;;;;;;;15.40;9.43;;;;;;;;;;6015770;23;20442;-57
2022/03/01 04:43:33;;;;;;;20.70;10.15;;;;;;;;;;5988251;23;20019;-57
2022/03/01 04:45:58;;;;;;;16.80;9.02;;;;;;;;;;6016386;23;20020;-59
2022/03/01 04:48:23;;;;;;;20.45;9.10;;;;;;;;;;6014233;23;20027;-57
2022/03/01 04:50:49;;;;;;;20.70;10.07;;;;;;;;;;6015974;23;20079;-59
2022/03/01 04:53:15;;;;;;;26.40;10.82;;;;;;;;;;6015096;23;20067;-53
2022/03/01 04:55:40;;;;;;;22.20;10.48;;;;;;;;;;6014966;23;20019;-57
2022/03/01 04:58:05;;;;;;;23.33;10.90;;;;;;;;;;6016291;23;20354;-57
2022/03/01 05:00:31;;;;;;;20.80;11.23;;;;;;;;;;6012618;23;20059;-58
2022/03/01 05:02:56;;;;;;;28.02;11.60;;;;;;;;;;6015204;23;20027;-56
2022/03/01 05:05:21;;;;;;;22.27;9.98;;;;;;;;;;6012693;23;20016;-58
2022/03/01 05:07:47;;;;;;;19.60;9.50;;;;;;;;;;6016144;23;20628;-56
2022/03/01 05:10:17;;;;;;;23.98;12.82;;;;;;;;;;6012781;23;20027;-58
2022/03/01 05:12:47;;;;;;;24.90;11.40;;;;;;;;;;6015277;23;20015;-57
2022/03/01 05:15:13;;;;;;;19.77;11.05;;;;;;;;;;6012855;23;20012;-57
2022/03/01 05:17:38;;;;;;;21.42;12.02;;;;;;;;;;6015905;23;20329;-58
2022/03/01 05:20:04;;;;;;;27.10;11.10;;;;;;;;;;6013778;23;20040;-57
2022/03/01 05:22:30;;;;;;;20.67;11.18;;;;;;;;;;6014825;23;20035;-58
2022/03/01 05:24:55;;;;;;;24.48;13.10;;;;;;;;;;6012494;23;20047;-55
2022/03/01 05:27:20;;;;;;;22.90;11.60;;;;;;;;;;6015976;23;20027;-57
2022/03/01 05:29:46;;;;;;;25.85;11.98;;;;;;;;;;6013535;23;20024;-58
2022/03/01 05:32:11;;;;;;;33.08;13.02;;;;;;;;;;6016109;23;20102;-58
2022/03/01 05:34:36;;;;;;;22.63;12.95;;;;;;;;;;6013248;23;20048;-54
2022/03/01 05:37:01;;;;;;;21.45;12.02;;;;;;;;;;6014941;23;20008;-55
2022/03/01 05:39:27;;;;;;;25.83;12.90;;;;;;;;;;6012662;23;20011;-57
2022/03/01 05:41:52;;;;;;;29.08;13.52;;;;;;;;;;6016060;23;20030;-57
2022/03/01 05:44:17;;;;;;;30.15;13.63;;;;;;;;;;6011890;23;20012;-57
2022/03/01 05:46:43;;;;;;;26.90;13.52;;;;;;;;;;6016011;23;20015;-57
2022/03/01 05:49:08;;;;;;;29.58;13.38;;;;;;;;;;6013090;23;20027;-58
2022/03/01 05:51:33;;;;;;;24.40;12.50;;;;;;;;;;5990285;23;20023;-57
2022/03/01 05:53:58;;;;;;;24.70;13.13;;;;;;;;;;6013296;23;20015;-57
2022/03/01 05:56:24;;;;;;;24.85;13.45;;;;;;;;;;6014662;23;20041;-57
2022/03/01 05:58:49;;;;;;;29.50;13.73;;;;;;;;;;6012694;23;20031;-57
2022/03/01 06:01:14;;;;;;;26.10;12.35;;;;;;;;;;6014903;23;20039;-57
2022/03/01 06:03:39;;;;;;;24.48;12.93;;;;;;;;;;6012493;23;20083;-58
2022/03/01 06:06:05;;;;;;;27.20;12.48;;;;;;;;;;6015666;23;20023;-56
2022/03/01 06:08:30;;;;;;;21.83;12.10;;;;;;;;;;6012013;23;20011;-54
2022/03/01 06:10:55;;;;;;;20.65;12.45;;;;;;;;;;6015407;23;20083;-54
2022/03/01 06:13:21;;;;;;;19.38;13.05;;;;;;;;;;6012600;23;20016;-58
2022/03/01 06:15:48;;;;;;;22.90;11.65;;;;;;;;;;5992587;23;20019;-56
2022/03/01 06:18:13;;;;;;;17.27;11.35;;;;;;;;;;6013928;23;20094;-58
2022/03/01 06:20:39;;;;;;;23.02;11.93;;;;;;;;;;6016780;23;20036;-56
2022/03/01 06:23:04;;;;;;;26.15;11.75;;;;;;;;;;6014538;23;20068;-57
2022/03/01 06:25:29;;;;;;;18.05;9.70;;;;;;;;;;5991577;23;20012;-58
2022/03/01 06:27:54;;;;;;;20.27;10.35;;;;;;;;;;6015933;23;20542;-58
2022/03/01 06:30:19;;;;;;;24.35;11.40;;;;;;;;;;6016296;23;20075;-58
2022/03/01 06:32:45;;;;;;;20.10;10.18;;;;;;;;;;6014826;23;20008;-58
2022/03/01 06:35:10;;;;;;;21.42;11.98;;;;;;;;;;6015717;23;20016;-55
2022/03/01 06:37:36;;;;;;;27.02;12.20;;;;;;;;;;6015540;23;20087;-54
2022/03/01 06:40:02;;;;;;;28.65;12.75;;;;;;;;;;6016315;23;20027;-59
2022/03/01 06:42:27;;;;;;;26.02;11.63;;;;;;;;;;6014575;23;20034;-57
2022/03/01 06:44:52;;;;;;;24.27;11.68;;;;;;;;;;6017032;23;20020;-57
2022/03/01 06:47:18;;;;;;;26.83;11.32;;;;;;;;;;6015342;23;20040;-56
2022/03/01 06:49:43;;;;;;;24.02;12.38;;;;;;;;;;6015990;23;20019;-56
2022/03/01 06:52:09;;;;;;;24.63;12.38;;;;;;;;;;6017389;23;20109;-58
2022/03/01 06:54:34;;;;;;;27.02;12.77;;;;;;;;;;6013983;23;20031;-56
2022/03/01 06:56:59;;;;;;;25.75;11.57;;;;;;;;;;6015831;23;20007;-58
2022/03/01 06:59:26;;;;;;;24.92;12.48;;;;;;;;;;6015499;23;20020;-58
2022/03/01 07:01:51;;;;;;;20.05;10.45;;;;;;;;;;6016224;23;20016;-58
2022/03/01 07:04:17;;;;;;;19.80;10.95;;;;;;;;;;6014465;23;20004;-57
2022/03/01 07:06:42;;;;;;;28.83;10.98;;;;;;;;;;6016240;23;20091;-56
2022/03/01 07:09:07;;;;;;;19.88;10.45;;;;;;;;;;6014746;23;20101;-56
2022/03/01 07:11:32;;;;;;;20.77;10.32;;;;;;;;;;6015370;23;20065;-55
2022/03/01 07:13:58;;;;;;;21.45;10.27;;;;;;;;;;6015148;23;20591;-55
2022/03/01 07:16:23;;;;;;;17.50;8.63;;;;;;;;;;6014746;23;20032;-56
2022/03/01 07:18:48;;;;;;;19.73;10.65;;;;;;;;;;6014528;23;20023;-56
2022/03/01 07:21:13;;;;;;;20.27;8.98;;;;;;;;;;6013347;23;20004;-56
2022/03/01 07:23:40;;;;;;;17.17;9.50;;;;;;;;;;6011702;23;20032;-57
2022/03/01 07:26:07;;;;;;;17.25;7.95;;;;;;;;;;6013409;23;20038;-56
2022/03/01 07:28:32;;;;;;;15.50;6.97;;;;;;;;;;6013627;23;20024;-57
2022/03/01 07:30:57;;;;;;;17.75;8.40;;;;;;;;;;6011781;23;20075;-58
2022/03/01 07:33:22;;;;;;;17.48;8.07;;;;;;;;;;6009925;23;20012;-56
2022/03/01 07:35:48;;;;;;;15.85;8.85;;;;;;;;;;6014017;23;20032;-58
2022/03/01 07:38:13;;;;;;;17.58;8.70;;;;;;;;;;6009247;23;20035;-48
2022/03/01 07:40:39;;;;;;;14.90;7.40;;;;;;;;;;6008918;23;20038;-49
2022/03/01 07:43:04;;;;;;;18.38;7.97;;;;;;;;;;6039541;23;20063;-47
2022/03/01 07:45:30;;;;;;;11.88;7.43;;;;;;;;;;6039818;23;20033;-48
2022/03/01 07:47:56;;;;;;;15.57;7.07;;;;;;;;;;6040716;23;20011;-47
2022/03/01 07:50:21;;;;;;;12.85;7.60;;;;;;;;;;6041176;23;20079;-49
2022/03/01 07:52:47;;;;;;;16.85;7.25;;;;;;;;;;6014155;23;20038;-50
2022/03/01 07:55:12;;;;;;;15.23;7.25;;;;;;;;;;6041885;23;20019;-48
2022/03/01 07:57:37;;;;;;;13.75;6.90;;;;;;;;;;6040846;23;20113;-48
2022/03/01 08:00:03;;;;;;;13.32;6.43;;;;;;;;;;6040020;23;20496;-50
2022/03/01 08:02:29;;;;;;;10.18;5.85;;;;;;;;;;6039881;23;25371;-50
2022/03/01 08:04:54;;;;;;;15.55;6.80;;;;;;;;;;6043693;23;20026;-49
2022/03/01 08:07:20;;;;;;;9.98;6.32;;;;;;;;;;6019023;23;20040;-51
2022/03/01 08:09:46;;;;;;;14.88;6.55;;;;;;;;;;6041969;23;20015;-49
2022/03/01 08:12:11;;;;;;;17.38;6.57;;;;;;;;;;6044215;23;20030;-48
2022/03/01 08:14:37;;;;;;;13.90;6.22;;;;;;;;;;6043364;23;20007;-48
2022/03/01 08:17:02;;;;;;;15.02;7.07;;;;;;;;;;6016699;23;20658;-50
2022/03/01 08:19:28;;;;;;;20.27;7.43;;;;;;;;;;6044146;23;20015;-48
2022/03/01 08:21:53;;;;;;;11.10;6.20;;;;;;;;;;6041797;23;20741;-49
2022/03/01 08:24:19;;;;;;;15.23;6.70;;;;;;;;;;6043107;23;20007;-50
2022/03/01 08:26:44;;;;;;;10.43;5.60;;;;;;;;;;6042226;23;20011;-52
2022/03/01 08:29:09;;;;;;;15.85;5.90;;;;;;;;;;6043929;23;20051;-52
2022/03/01 08:31:36;;;;;;;14.30;5.55;;;;;;;;;;6042081;23;20027;-49
2022/03/01 08:34:01;;;;;;;16.88;5.93;;;;;;;;;;6040134;23;20043;-48
2022/03/01 08:36:26;;;;;;;12.35;5.97;;;;;;;;;;6038046;23;20575;-49
2022/03/01 08:38:51;;;;;;;13.00;6.85;;;;;;;;;;6026272;23;20109;-48
2022/03/01 08:41:17;;;;;;;9.55;5.63;;;;;;;;;;6008309;23;20016;-49
2022/03/01 08:43:42;;;;;;;11.82;6.68;;;;;;;;;;6012677;23;20548;-50
2022/03/01 08:46:11;;;;;;;10.57;5.45;;;;;;;;;;6009467;23;20011;-48
2022/03/01 08:48:36;;;;;;;11.55;6.05;;;;;;;;;;6010281;23;20801;-47
2022/03/01 08:51:02;;;;;;;12.98;5.93;;;;;;;;;;6009215;23;20076;-50
2022/03/01 08:53:27;;;;;;;17.48;6.40;;;;;;;;;;6011318;23;20020;-51
2022/03/01 08:55:53;;;;;;;9.57;5.07;;;;;;;;;;6008155;23;20619;-52
2022/03/01 08:58:19;;;;;;;11.93;5.13;;;;;;;;;;5970010;23;20011;-50
2022/03/01 09:00:45;;;;;;;11.95;5.07;;;;;;;;;;6004224;23;20010;-49
2022/03/01 09:03:10;;;;;;;12.13;5.28;;;;;;;;;;6006062;23;20040;-48
2022/03/01 09:05:36;;;;;;;10.82;5.38;;;;;;;;;;6001907;23;20012;-52
2022/03/01 09:08:01;;;;;;;8.35;5.60;;;;;;;;;;6007343;23;20015;-51
2022/03/01 09:10:26;;;;;;;14.93;5.95;;;;;;;;;;6000994;23;20028;-49
2022/03/01 09:12:52;;;;;;;7.13;4.25;;;;;;;;;;6000838;23;20012;-51
2022/03/01 09:15:18;;;;;;;10.38;5.05;;;;;;;;;;5991965;23;20011;-49
2022/03/01 09:17:44;;;;;;;14.70;5.00;;;;;;;;;;5990696;23;20019;-48
2022/03/01 09:20:10;;;;;;;12.82;4.95;;;;;;;;;;5986915;23;20011;-49
2022/03/01 09:22:35;;;;;;;14.15;5.25;;;;;;;;;;6014363;23;20022;-49
2022/03/01 09:25:02;;;;;;;9.95;5.10;;;;;;;;;;6012456;23;20093;-49
2022/03/01 09:27:27;;;;;;;6.40;4.70;;;;;;;;;;6014148;23;20027;-49
2022/03/01 09:29:52;;;;;;;11.90;4.85;;;;;;;;;;6013422;23;20020;-48
2022/03/01 09:32:18;;;;;;;8.63;4.43;;;;;;;;;;6013540;23;20059;-51
2022/03/01 09:34:44;;;;;;;11.20;4.90;;;;;;;;;;6012694;23;20017;-48
2022/03/01 09:37:09;;;;;;;10.48;5.00;;;;;;;;;;6014411;23;20012;-51
2022/03/01 09:39:34;;;;;;;8.15;3.88;;;;;;;;;;6012162;23;20524;-50
2022/03/01 09:41:59;;;;;;;6.97;3.90;;;;;;;;;;6013899;23;20060;-50
2022/03/01 09:44:25;;;;;;;8.93;4.55;;;;;;;;;;6011014;23;20044;-49
2022/03/01 09:46:50;;;;;;;8.43;4.40;;;;;;;;;;6015144;23;20012;-48
2022/03/01 09:49:16;;;;;;;9.77;4.72;;;;;;;;;;6009361;23;20032;-50
2022/03/01 09:51:42;;;;;;;8.20;3.85;;;;;;;;;;5990551;23;20018;-50
2022/03/01 09:54:07;;;;;;;6.13;3.55;;;;;;;;;;6012636;23;20026;-48
2022/03/01 09:56:32;;;;;;;14.93;4.28;;;;;;;;;;6014402;23;20019;-48
2022/03/01 09:58:58;;;;;;;7.88;3.00;;;;;;;;;;6011574;23;20016;-49
2022/03/01 10:01:23;;;;;;;5.55;3.38;;;;;;;;;;6013517;23;20023;-50
2022/03/01 10:03:51;;;;;;;4.57;2.60;;;;;;;;;;6012130;23;20060;-51
2022/03/01 10:06:17;;;;;;;4.70;2.70;;;;;;;;;;6014178;23;20044;-50
2022/03/01 10:08:42;;;;;;;4.95;2.63;;;;;;;;;;6013087;23;20060;-50
2022/03/01 10:11:09;;;;;;;6.38;2.60;;;;;;;;;;6015185;23;20076;-52
2022/03/01 10:13:37;;;;;;;10.13;4.22;;;;;;;;;;6011793;23;20008;-48
2022/03/01 10:16:10;;;;;;;7.97;3.42;;;;;;;;;;6014426;23;20019;-50
2022/03/01 10:18:37;;;;;;;6.93;3.45;;;;;;;;;;6012125;23;20012;-48
2022/03/01 10:21:04;;;;;;;10.43;3.60;;;;;;;;;;6014567;23;20012;-50
2022/03/01 10:23:29;;;;;;;6.50;3.47;;;;;;;;;;6011537;23;20020;-48
2022/03/01 10:25:54;;;;;;;6.60;3.35;;;;;;;;;;6010348;23;20016;-49
2022/03/01 10:28:30;;;;;;;4.88;3.40;;;;;;;;;;6000783;23;20016;-47
2022/03/01 10:30:56;;;;;;;5.55;3.47;;;;;;;;;;6014765;23;20019;-48
2022/03/01 10:33:21;;;;;;;5.38;3.33;;;;;;;;;;6011316;23;20019;-47
2022/03/01 10:35:57;;;;;;;7.00;3.80;;;;;;;;;;6014972;23;20023;-50
2022/03/01 10:38:24;;;;;;;7.22;3.22;;;;;;;;;;6011652;23;20020;-49
2022/03/01 10:40:55;;;;;;;8.20;4.28;;;;;;;;;;6014865;23;20023;-48
2022/03/01 10:43:24;;;;;;;8.25;4.22;;;;;;;;;;6011103;23;20044;-47
2022/03/01 10:45:50;;;;;;;9.25;4.55;;;;;;;;;;6015145;23;20019;-46
2022/03/01 10:48:34;;;;;;;9.82;4.72;;;;;;;;;;6012896;23;20011;-48
2022/03/01 10:51:01;;;;;;;11.45;5.15;;;;;;;;;;6012220;23;20023;-47
2022/03/01 10:53:33;;;;;;;9.65;4.22;;;;;;;;;;6013749;23;20016;-49
2022/03/01 10:55:59;;;;;;;9.68;4.53;;;;;;;;;;5986763;23;20027;-48
2022/03/01 10:58:25;;;;;;;10.93;5.13;;;;;;;;;;6008355;23;20016;-48
2022/03/01 11:00:50;;;;;;;5.97;4.32;;;;;;;;;;6012107;23;20019;-49
2022/03/01 11:03:15;;;;;;;11.25;4.75;;;;;;;;;;6014501;23;20008;-48
2022/03/01 11:05:41;;;;;;;10.20;4.70;;;;;;;;;;6012990;23;20014;-47
2022/03/01 11:08:09;;;;;;;9.85;4.90;;;;;;;;;;6016291;23;20090;-49
2022/03/01 11:10:36;;;;;;;10.38;5.03;;;;;;;;;;6013193;23;20036;-50
2022/03/01 11:13:01;;;;;;;8.70;5.22;;;;;;;;;;6016727;23;20012;-49
2022/03/01 11:15:33;;;;;;;7.90;5.25;;;;;;;;;;6013093;23;20036;-50
2022/03/01 11:18:07;;;;;;;9.93;5.28;;;;;;;;;;5991819;23;20019;-50
2022/03/01 11:20:35;;;;;;;13.77;5.22;;;;;;;;;;5990482;23;20020;-47
2022/03/01 11:23:08;;;;;;;10.73;5.25;;;;;;;;;;6013368;23;20027;-50
2022/03/01 11:25:37;;;;;;;11.65;6.15;;;;;;;;;;6015102;23;20016;-51
2022/03/01 11:28:05;;;;;;;12.25;7.32;;;;;;;;;;6013836;23;20052;-48
2022/03/01 11:30:34;;;;;;;9.07;6.32;;;;;;;;;;6015095;23;20038;-50
2022/03/01 11:33:00;;;;;;;13.60;5.97;;;;;;;;;;6016000;23;20020;-49
2022/03/01 11:35:28;;;;;;;11.00;5.80;;;;;;;;;;6014941;23;20036;-49
2022/03/01 11:38:02;;;;;;;10.77;6.25;;;;;;;;;;6016512;23;20092;-52
2022/03/01 11:40:29;;;;;;;14.27;6.45;;;;;;;;;;6012624;23;20032;-53
2022/03/01 11:43:05;;;;;;;8.15;4.97;;;;;;;;;;6016030;23;20016;-49
2022/03/01 11:45:34;;;;;;;10.80;5.57;;;;;;;;;;6013042;23;20506;-51
2022/03/01 11:48:03;;;;;;;12.65;6.18;;;;;;;;;;6015138;23;20044;-48
2022/03/01 11:50:28;;;;;;;;;;;;;;;;;;6014138;23;22165;-49
2022/03/01 11:52:56;;;;;;;20.80;6.75;;;;;;;;;;6016063;23;19937;-53
2022/03/01 11:55:22;;;;;;;9.25;6.25;;;;;;;;;;6012895;23;20008;-51
2022/03/01 11:57:48;;;;;;;11.85;6.63;;;;;;;;;;6016242;23;20004;-48
2022/03/01 12:00:15;;;;;;;13.63;7.47;;;;;;;;;;6013224;23;20016;-52
2022/03/01 12:02:44;;;;;;;11.63;6.93;;;;;;;;;;6016754;23;20465;-47
2022/03/01 12:05:18;;;;;;;15.85;7.13;;;;;;;;;;6013091;23;20023;-52
2022/03/01 12:07:44;;;;;;;11.23;6.68;;;;;;;;;;6016443;23;20023;-50
2022/03/01 12:10:18;;;;;;;10.82;6.55;;;;;;;;;;6012368;23;20562;-49
2022/03/01 12:12:45;;;;;;;13.52;7.78;;;;;;;;;;6011437;23;20068;-50
2022/03/01 12:15:12;;;;;;;15.27;7.22;;;;;;;;;;6006992;23;20016;-48
2022/03/01 12:17:45;;;;;;;11.70;7.35;;;;;;;;;;6005749;23;20008;-48
2022/03/01 12:20:11;;;;;;;13.65;7.18;;;;;;;;;;6005863;23;20016;-50
2022/03/01 12:22:36;;;;;;;14.43;7.63;;;;;;;;;;6013683;23;20024;-47
2022/03/01 12:25:02;;;;;;;14.20;6.97;;;;;;;;;;5987256;23;20008;-47
2022/03/01 12:27:29;;;;;;;16.98;7.85;;;;;;;;;;6013543;23;20019;-49
2022/03/01 12:29:55;;;;;;;12.95;7.38;;;;;;;;;;6012733;23;20024;-46
2022/03/01 12:32:20;;;;;;;11.40;6.60;;;;;;;;;;6014410;23;20012;-48
2022/03/01 12:34:46;;;;;;;14.75;7.80;;;;;;;;;;5983392;23;20067;-47
2022/03/01 12:37:17;;;;;;;23.02;8.65;;;;;;;;;;6005682;23;20030;-46
2022/03/01 12:39:43;;;;;;;10.07;6.15;;;;;;;;;;6008503;23;20533;-47
2022/03/01 12:42:08;;;;;;;15.25;8.23;;;;;;;;;;6010487;23;20048;-51
2022/03/01 12:44:34;;;;;;;14.43;7.65;;;;;;;;;;6008858;23;20020;-51
2022/03/01 12:47:00;;;;;;;16.70;8.15;;;;;;;;;;6009830;23;20099;-49
2022/03/01 12:49:27;;;;;;;13.45;7.88;;;;;;;;;;6009176;23;20039;-47
2022/03/01 12:51:54;;;;;;;14.60;8.07;;;;;;;;;;6012883;23;20027;-47
2022/03/01 12:54:21;;;;;;;16.90;9.68;;;;;;;;;;6008684;23;20015;-47
2022/03/01 12:56:50;;;;;;;16.73;8.45;;;;;;;;;;5986013;23;20016;-49
2022/03/01 12:59:18;;;;;;;16.77;8.10;;;;;;;;;;6008049;23;20019;-47
2022/03/01 13:01:47;;;;;;;17.55;8.10;;;;;;;;;;6012189;23;20007;-47
2022/03/01 13:04:13;;;;;;;15.40;8.50;;;;;;;;;;5984297;23;20174;-47
2022/03/01 13:06:39;;;;;;;21.02;9.90;;;;;;;;;;6011718;23;20016;-48
2022/03/01 13:09:04;;;;;;;16.00;7.45;;;;;;;;;;6009381;23;20039;-47
2022/03/01 13:11:30;;;;;;;13.75;9.15;;;;;;;;;;6010799;23;20511;-48
2022/03/01 13:13:59;;;;;;;21.33;9.13;;;;;;;;;;6009045;23;20012;-49
2022/03/01 13:16:24;;;;;;;14.07;9.13;;;;;;;;;;5985482;23;20023;-50
2022/03/01 13:18:53;;;;;;;12.55;8.40;;;;;;;;;;6010029;23;20310;-48
2022/03/01 13:21:23;;;;;;;19.92;8.60;;;;;;;;;;6008730;23;20020;-47
2022/03/01 13:23:49;;;;;;;20.15;9.05;;;;;;;;;;6009294;23;20020;-47
2022/03/01 13:26:14;;;;;;;15.45;6.97;;;;;;;;;;6007485;23;20015;-50
2022/03/01 13:28:40;;;;;;;18.83;8.10;;;;;;;;;;6009583;23;20016;-51
2022/03/01 13:31:05;;;;;;;23.40;8.57;;;;;;;;;;6009806;23;20071;-50
2022/03/01 13:33:32;;;;;;;14.27;7.63;;;;;;;;;;5985223;23;20016;-48
2022/03/01 13:35:58;;;;;;;16.02;8.25;;;;;;;;;;6005243;23;20011;-47
2022/03/01 13:38:25;;;;;;;13.68;7.60;;;;;;;;;;6005871;23;20031;-47
2022/03/01 13:40:50;;;;;;;12.73;7.20;;;;;;;;;;6001125;23;20022;-48
2022/03/01 13:43:22;;;;;;;18.77;7.22;;;;;;;;;;6007239;23;20434;-47
2022/03/01 13:45:53;;;;;;;15.68;5.88;;;;;;;;;;6012417;23;20038;-47
2022/03/01 13:48:18;;;;;;;11.70;5.50;;;;;;;;;;6009093;23;20071;-47
2022/03/01 13:50:46;;;;;;;18.25;6.70;;;;;;;;;;6008002;23;20024;-47
2022/03/01 13:53:11;;;;;;;13.45;5.95;;;;;;;;;;6011212;23;20064;-48
2022/03/01 13:55:37;;;;;;;11.40;5.85;;;;;;;;;;6010627;23;20015;-49
2022/03/01 13:58:03;;;;;;;13.00;5.43;;;;;;;;;;6012354;23;20039;-48
2022/03/01 14:00:33;;;;;;;10.30;5.22;;;;;;;;;;6008365;23;20016;-49
2022/03/01 14:03:02;;;;;;;11.60;5.63;;;;;;;;;;6013024;23;20023;-46
2022/03/01 14:05:28;;;;;;;9.02;4.75;;;;;;;;;;6009029;23;20237;-47
2022/03/01 14:08:04;;;;;;;6.30;4.53;;;;;;;;;;6012390;23;20023;-46
2022/03/01 14:10:30;;;;;;;12.48;5.47;;;;;;;;;;5984413;23;20059;-45
2022/03/01 14:13:10;;;;;;;9.15;5.45;;;;;;;;;;6011914;23;20457;-49
2022/03/01 14:15:37;;;;;;;10.40;5.30;;;;;;;;;;6009864;23;20014;-48
2022/03/01 14:18:03;;;;;;;7.13;4.93;;;;;;;;;;6010516;23;20011;-48
2022/03/01 14:20:28;;;;;;;11.32;5.20;;;;;;;;;;6010675;23;20039;-49
2022/03/01 14:22:54;;;;;;;8.50;4.93;;;;;;;;;;6010278;23;20015;-48
2022/03/01 14:25:19;;;;;;;11.40;6.10;;;;;;;;;;6011306;23;20011;-48
2022/03/01 14:27:45;;;;;;;10.07;5.97;;;;;;;;;;6011669;23;20156;-48